createdAt,value
2019-03-24T00:01:56.490Z,21.1
2019-03-24T00:07:19.302Z,19.700001
2019-03-24T00:12:42.096Z,23.299999
2019-03-24T00:18:04.785Z,19.4
2019-03-24T00:23:27.446Z,21
2019-03-24T00:28:50.202Z,23.200001
2019-03-24T00:34:12.845Z,18.799999
2019-03-24T00:39:35.534Z,19.200001
2019-03-24T00:44:58.197Z,24.9
2019-03-24T00:50:20.863Z,25.5
2019-03-24T00:55:43.524Z,17
2019-03-24T01:01:07.353Z,19
2019-03-24T01:06:30.083Z,23.5
2019-03-24T01:11:52.753Z,27.4
2019-03-24T01:17:15.406Z,27.6
2019-03-24T01:22:38.077Z,26.200001
2019-03-24T01:28:00.757Z,17.200001
2019-03-24T01:33:23.405Z,26.9
2019-03-24T01:38:46.353Z,29.4
2019-03-24T01:44:09.010Z,29.6
2019-03-24T01:49:31.669Z,27.5
2019-03-24T01:54:54.406Z,28.700001
2019-03-24T02:00:17.129Z,25.200001
2019-03-24T02:05:39.797Z,28.200001
2019-03-24T02:11:02.502Z,32.799999
2019-03-24T02:16:25.164Z,30
2019-03-24T02:21:47.942Z,30.4
2019-03-24T02:27:10.583Z,30.1
2019-03-24T02:32:33.245Z,27.9
2019-03-24T02:37:55.900Z,27.5
2019-03-24T02:43:18.568Z,34
2019-03-24T02:48:41.240Z,28.799999
2019-03-24T02:54:04.444Z,24.5
2019-03-24T02:59:27.140Z,31.4
2019-03-24T03:04:49.794Z,30.1
2019-03-24T03:10:13.411Z,35.200001
2019-03-24T03:15:36.958Z,33.700001
2019-03-24T03:20:59.591Z,40.400002
2019-03-24T03:26:23.160Z,31.1
2019-03-24T03:31:45.827Z,32.700001
2019-03-24T03:37:08.454Z,32.900002
2019-03-24T03:42:31.100Z,35.900002
2019-03-24T03:47:53.768Z,42.5
2019-03-24T03:53:16.410Z,39.299999
2019-03-24T03:58:39.061Z,45.799999
2019-03-24T04:04:01.839Z,46.400002
2019-03-24T04:09:24.796Z,41.099998
2019-03-24T04:14:47.502Z,45.900002
2019-03-24T04:20:10.315Z,40.400002
2019-03-24T04:25:32.933Z,44.5
2019-03-24T04:30:55.652Z,42.099998
2019-03-24T04:36:18.294Z,38.200001
2019-03-24T04:41:40.986Z,45.400002
2019-03-24T04:47:04.473Z,36.099998
2019-03-24T04:52:28.657Z,41.599998
2019-03-24T04:57:51.311Z,39.200001
2019-03-24T05:03:14.035Z,59.299999
2019-03-24T05:08:37.455Z,53.099998
2019-03-24T05:14:00.152Z,55
2019-03-24T05:19:22.864Z,52.200001
2019-03-24T05:24:45.542Z,49.200001
2019-03-24T05:30:08.237Z,50.599998
2019-03-24T05:35:30.938Z,44.200001
2019-03-24T05:40:53.640Z,48.400002
2019-03-24T05:46:16.298Z,41.599998
2019-03-24T05:51:38.967Z,44.599998
2019-03-24T05:57:01.911Z,40.900002
2019-03-24T06:02:24.825Z,37.799999
2019-03-24T06:07:47.613Z,44.200001
2019-03-24T06:13:10.424Z,50.400002
2019-03-24T06:18:33.131Z,41.599998
2019-03-24T06:23:55.883Z,39.099998
2019-03-24T06:29:18.650Z,38
2019-03-24T06:34:41.390Z,38
2019-03-24T06:40:04.183Z,32.099998
2019-03-24T06:45:28.567Z,76.300003
2019-03-24T06:50:49.574Z,31.6
2019-03-24T06:56:12.283Z,25.799999
2019-03-24T07:01:34.946Z,30.5
2019-03-24T07:06:57.656Z,29.5
2019-03-24T07:12:20.320Z,28
2019-03-24T07:17:43.087Z,30.299999
2019-03-24T07:23:05.745Z,24.1
2019-03-24T07:28:28.406Z,25.9
2019-03-24T07:33:51.083Z,27.4
2019-03-24T07:39:13.765Z,27.1
2019-03-24T07:44:36.401Z,23.1
2019-03-24T07:49:59.090Z,21.200001
2019-03-24T07:55:21.773Z,26
2019-03-24T08:00:44.570Z,20
2019-03-24T08:06:07.273Z,23.5
2019-03-24T08:11:29.989Z,23.6
2019-03-24T08:16:52.815Z,25.6
2019-03-24T08:22:15.508Z,20.299999
2019-03-24T08:27:38.236Z,21.4
2019-03-24T08:33:01.130Z,17.4
2019-03-24T08:38:23.918Z,24
2019-03-24T08:43:46.685Z,20.4
2019-03-24T08:49:09.360Z,19.700001
2019-03-24T08:54:32.046Z,20
2019-03-24T08:59:54.688Z,15.2
2019-03-24T09:05:17.386Z,15.7
2019-03-24T09:10:40.110Z,14.6
2019-03-24T09:16:02.822Z,18
2019-03-24T09:21:25.476Z,17.6
2019-03-24T09:26:48.217Z,15.6
2019-03-24T09:32:11.057Z,11.4
2019-03-24T09:37:34.175Z,11.9
2019-03-24T09:42:56.922Z,12
2019-03-24T09:48:19.663Z,10.2
2019-03-24T09:53:42.353Z,14.7
2019-03-24T09:59:05.028Z,16
2019-03-24T10:04:29.191Z,12
2019-03-24T10:09:51.629Z,11.2
2019-03-24T10:15:14.771Z,10.7
2019-03-24T10:20:37.991Z,13.2
2019-03-24T10:26:00.732Z,9.8
2019-03-24T10:31:23.391Z,12
2019-03-24T10:36:46.018Z,12.4
2019-03-24T10:42:08.683Z,13.1
2019-03-24T10:47:32.477Z,11.4
2019-03-24T10:52:55.190Z,10
2019-03-24T10:58:17.835Z,9.6
2019-03-24T11:03:40.518Z,8.3
2019-03-24T11:09:03.228Z,8.3
2019-03-24T11:14:25.917Z,7.4
2019-03-24T11:19:48.633Z,6.2
2019-03-24T11:25:11.286Z,9.4
2019-03-24T11:30:34.874Z,7.8
2019-03-24T11:35:57.530Z,9.9
2019-03-24T11:41:20.195Z,6.6
2019-03-24T11:46:43.045Z,6.7
2019-03-24T11:52:05.765Z,5.9
2019-03-24T11:57:29.007Z,5
2019-03-24T12:02:51.666Z,6.7
2019-03-24T12:08:14.787Z,6.8
2019-03-24T12:13:37.453Z,8
2019-03-24T12:19:00.104Z,8.4
2019-03-24T12:24:23.623Z,8.7
2019-03-24T12:29:46.278Z,6.7
2019-03-24T12:35:08.953Z,8.1
2019-03-24T12:40:31.649Z,7.3
2019-03-24T12:45:54.362Z,11
2019-03-24T12:51:17.011Z,10.6
2019-03-24T12:56:41.011Z,5.4
2019-03-24T13:02:03.597Z,6.1
2019-03-24T13:07:26.306Z,7
2019-03-24T13:12:49.002Z,8.1
2019-03-24T13:18:11.723Z,8.8
2019-03-24T13:23:34.375Z,8.5
2019-03-24T13:28:57.868Z,10.2
2019-03-24T13:34:20.570Z,8.6
2019-03-24T13:39:43.269Z,7.5
2019-03-24T13:45:05.963Z,8.1
2019-03-24T13:50:31.530Z,11.4
2019-03-24T13:55:52.272Z,12.1
2019-03-24T14:01:15.035Z,15.4
2019-03-24T14:06:37.800Z,18.9
2019-03-24T14:12:00.612Z,16.200001
2019-03-24T14:17:23.341Z,16.4
2019-03-24T14:22:46.109Z,19.6
2019-03-24T14:28:08.772Z,16.299999
2019-03-24T14:33:31.452Z,17.9
2019-03-24T14:38:54.085Z,11.3
2019-03-24T14:44:16.868Z,8.9
2019-03-24T14:49:39.540Z,8.8
2019-03-24T14:55:03.228Z,7.7
2019-03-24T15:00:25.916Z,5.5
2019-03-24T15:05:48.582Z,3.9
2019-03-24T15:11:11.382Z,5.2
2019-03-24T15:16:34.114Z,4.9
2019-03-24T15:21:56.804Z,7
2019-03-24T15:27:19.485Z,9.2
2019-03-24T15:32:42.261Z,10.8
2019-03-24T15:38:08.285Z,7
2019-03-24T15:43:28.712Z,9.1
2019-03-24T15:48:51.357Z,6
2019-03-24T15:54:14.003Z,7.8
2019-03-24T15:59:36.635Z,7.3
2019-03-24T16:04:59.260Z,8.7
2019-03-24T16:10:21.974Z,7.8
2019-03-24T16:15:44.609Z,9.3
2019-03-24T16:21:07.263Z,8.6
2019-03-24T16:26:30.925Z,7.4
2019-03-24T16:31:53.551Z,5.1
2019-03-24T16:37:16.266Z,7.5
2019-03-24T16:42:38.975Z,7.5
2019-03-24T16:48:01.726Z,7.4
2019-03-24T16:53:25.163Z,8.5
2019-03-24T16:58:47.798Z,8.3
2019-03-24T17:04:10.430Z,10.7
2019-03-24T17:09:33.103Z,8.1
2019-03-24T17:14:56.013Z,7.9
2019-03-24T17:20:18.662Z,10.3
2019-03-24T17:25:41.350Z,10.2
2019-03-24T17:31:04.000Z,10.3
2019-03-24T17:36:26.683Z,10.7
2019-03-24T17:41:49.326Z,8.9
2019-03-24T17:47:12.084Z,7.6
2019-03-24T17:52:34.730Z,7.7
2019-03-24T17:57:57.391Z,9.9
2019-03-24T18:03:20.074Z,8.5
2019-03-24T18:08:42.786Z,9.5
2019-03-24T18:14:05.428Z,5.7
2019-03-24T18:19:28.097Z,8.3
2019-03-24T18:24:50.749Z,7.2
2019-03-24T18:30:16.857Z,8.3
2019-03-24T18:35:39.537Z,8.7
2019-03-24T18:41:02.202Z,9.4
2019-03-24T18:46:27.805Z,12
2019-03-24T18:51:50.542Z,9.9
2019-03-24T18:57:13.269Z,7.8
2019-03-24T19:02:37.631Z,8.6
2019-03-24T19:08:00.443Z,9.2
2019-03-24T19:13:23.200Z,9.6
2019-03-24T19:18:46.186Z,9.2
2019-03-24T19:24:08.822Z,9.2
2019-03-24T19:29:31.710Z,10.6
2019-03-24T19:34:54.705Z,9.6
2019-03-24T19:40:17.758Z,10.1
2019-03-24T19:45:40.731Z,11.2
2019-03-24T19:51:03.509Z,7
2019-03-24T19:56:27.227Z,10.4
2019-03-24T20:01:52.050Z,11.9
2019-03-24T20:07:15.081Z,9.2
2019-03-24T20:12:37.781Z,10.3
2019-03-24T20:18:00.662Z,8.1
2019-03-24T20:23:23.450Z,7.6
2019-03-24T20:28:46.152Z,9.1
2019-03-24T20:34:12.411Z,6.6
2019-03-24T20:39:35.219Z,9.8
2019-03-24T20:44:57.949Z,8.1
2019-03-24T20:50:21.066Z,7.3
2019-03-24T20:55:43.779Z,10.3
2019-03-24T21:01:07.475Z,9.8
2019-03-24T21:06:30.138Z,12.3
2019-03-24T21:11:52.832Z,12.5
2019-03-24T21:17:15.499Z,8.6
2019-03-24T21:22:38.327Z,12.2
2019-03-24T21:28:01.059Z,11.9
2019-03-24T21:33:24.425Z,13.6
2019-03-24T21:38:47.892Z,12.4
2019-03-24T21:44:11.425Z,10.8
2019-03-24T21:49:34.112Z,11.7
2019-03-24T21:54:56.822Z,10.3
2019-03-24T22:00:19.776Z,11.5
2019-03-24T22:05:42.542Z,11.7
2019-03-24T22:11:05.326Z,9.7
2019-03-24T22:16:27.990Z,11.8
2019-03-24T22:21:50.653Z,6.9
2019-03-24T22:27:14.336Z,10.4
2019-03-24T22:32:37.013Z,13.1
2019-03-24T22:37:59.716Z,12.8
2019-03-24T22:43:22.890Z,11
2019-03-24T22:48:45.580Z,9.5
2019-03-24T22:54:08.257Z,9
2019-03-24T22:59:30.907Z,9.9
2019-03-24T23:04:54.430Z,11.9
2019-03-24T23:10:17.119Z,11
2019-03-24T23:15:39.763Z,11.2
2019-03-24T23:21:02.779Z,11.8
2019-03-24T23:26:25.438Z,12
2019-03-24T23:31:48.164Z,13.7
2019-03-24T23:37:10.834Z,12.5
2019-03-24T23:42:33.620Z,12.6
2019-03-24T23:47:56.757Z,10.9
2019-03-24T23:53:19.439Z,15.5
2019-03-24T23:58:42.068Z,9.4
